Time;durP1;ratioP1;P1;durP2;ratioP2;P2;SDS_P1;SDS_P2;PMS_P1;PMS_P2;Temp;Humidity;BMP_temperature;BMP_pressure;BME280_temperature;BME280_humidity;BME280_pressure;Samples;Min_cycle;Max_cycle;Signal;HPM_P1;HPM_P2
2021/07/10 00:02:22;;;;;;;32.80;30.30;;;;;;;;;;5057401;28;20436;-93
2021/07/10 00:04:49;;;;;;;31.80;29.60;;;;;;;;;;5056622;28;20902;-93
2021/07/10 00:07:17;;;;;;;31.10;28.40;;;;;;;;;;5057388;28;20825;-93
2021/07/10 00:09:44;;;;;;;30.73;28.67;;;;;;;;;;5056593;28;20478;-93
2021/07/10 00:12:11;;;;;;;31.63;29.40;;;;;;;;;;5057465;28;20447;-92
2021/07/10 00:14:40;;;;;;;34.03;31.27;;;;;;;;;;5057195;28;20454;-93
2021/07/10 00:17:08;;;;;;;34.47;31.50;;;;;;;;;;5056695;28;20485;-94
2021/07/10 00:19:35;;;;;;;30.63;28.60;;;;;;;;;;5056455;28;20422;-93
2021/07/10 00:22:03;;;;;;;30.50;28.30;;;;;;;;;;5056735;28;20780;-93
2021/07/10 00:24:31;;;;;;;30.83;28.63;;;;;;;;;;5056612;28;20409;-93
2021/07/10 00:26:58;;;;;;;32.50;30.00;;;;;;;;;;5056272;28;20862;-92
2021/07/10 00:29:26;;;;;;;34.50;31.60;;;;;;;;;;5056572;28;20411;-93
2021/07/10 00:31:55;;;;;;;31.33;29.00;;;;;;;;;;5055772;28;20919;-93
2021/07/10 00:34:23;;;;;;;35.50;32.20;;;;;;;;;;5057042;28;20426;-93
2021/07/10 00:36:50;;;;;;;32.63;30.13;;;;;;;;;;5056418;28;20481;-93
2021/07/10 00:39:18;;;;;;;31.50;29.20;;;;;;;;;;5055937;28;20503;-93
2021/07/10 00:41:45;;;;;;;30.83;28.70;;;;;;;;;;5056426;28;20451;-94
2021/07/10 00:44:12;;;;;;;34.63;31.77;;;;;;;;;;5056569;28;20437;-93
2021/07/10 00:46:40;;;;;;;34.50;32.00;;;;;;;;;;5055913;28;20450;-93
2021/07/10 00:49:09;;;;;;;31.47;29.07;;;;;;;;;;5056224;28;20412;-93
2021/07/10 00:51:36;;;;;;;30.80;28.47;;;;;;;;;;5056094;28;20416;-93
2021/07/10 00:54:04;;;;;;;30.43;28.37;;;;;;;;;;5055855;28;20455;-94
2021/07/10 00:56:31;;;;;;;30.50;28.27;;;;;;;;;;5055967;28;20462;-94
2021/07/10 00:58:59;;;;;;;32.27;29.77;;;;;;;;;;5055942;28;20449;-93
2021/07/10 01:01:27;;;;;;;33.13;30.50;;;;;;;;;;5055950;28;20416;-93
2021/07/10 01:03:54;;;;;;;33.40;30.90;;;;;;;;;;5055380;28;20809;-93
2021/07/10 01:06:23;;;;;;;33.67;30.97;;;;;;;;;;5055978;28;20418;-93
2021/07/10 01:08:51;;;;;;;30.37;28.00;;;;;;;;;;5055698;28;20443;-94
2021/07/10 01:11:18;;;;;;;30.23;27.93;;;;;;;;;;5055579;28;20432;-93
2021/07/10 01:13:45;;;;;;;30.47;27.87;;;;;;;;;;5055792;28;20443;-93
2021/07/10 01:16:13;;;;;;;33.80;31.00;;;;;;;;;;5055214;28;20454;-93
2021/07/10 01:18:40;;;;;;;31.50;29.40;;;;;;;;;;5055753;28;20446;-93
2021/07/10 01:21:09;;;;;;;30.03;27.83;;;;;;;;;;5037826;28;20454;-94
2021/07/10 01:23:37;;;;;;;31.30;29.20;;;;;;;;;;5037768;28;20443;-94
2021/07/10 01:26:04;;;;;;;30.40;28.10;;;;;;;;;;5055058;28;20417;-93
2021/07/10 01:28:32;;;;;;;29.67;27.70;;;;;;;;;;5037583;28;20472;-94
2021/07/10 01:31:00;;;;;;;32.40;29.80;;;;;;;;;;5055409;28;20473;-93
2021/07/10 01:33:28;;;;;;;33.27;30.57;;;;;;;;;;5055058;28;20417;-93
2021/07/10 01:35:55;;;;;;;33.20;30.57;;;;;;;;;;5055260;28;20417;-93
2021/07/10 01:38:24;;;;;;;31.60;29.20;;;;;;;;;;5055305;28;20448;-94
2021/07/10 01:40:51;;;;;;;32.97;30.47;;;;;;;;;;5054805;28;20460;-93
2021/07/10 01:43:19;;;;;;;32.30;29.90;;;;;;;;;;5055135;28;20473;-93
2021/07/10 01:45:46;;;;;;;34.30;31.70;;;;;;;;;;5055399;28;20420;-93
2021/07/10 01:48:14;;;;;;;31.50;29.07;;;;;;;;;;5054721;28;20469;-93
2021/07/10 01:50:42;;;;;;;32.73;30.30;;;;;;;;;;5037052;28;20422;-93
2021/07/10 01:53:11;;;;;;;35.47;32.60;;;;;;;;;;5054741;28;20429;-93
2021/07/10 01:55:41;;;;;;;37.67;34.50;;;;;;;;;;5055038;28;20443;-92
2021/07/10 01:58:08;;;;;;;33.53;30.90;;;;;;;;;;5054513;28;20461;-91
2021/07/10 02:00:38;;;;;;;31.80;29.40;;;;;;;;;;5054861;28;20403;-91
2021/07/10 02:03:17;;;;;;;34.30;31.63;;;;;;;;;;5054984;28;20432;-91
2021/07/10 02:05:45;;;;;;;33.03;30.63;;;;;;;;;;5054687;28;20905;-90
2021/07/10 02:08:13;;;;;;;33.40;30.90;;;;;;;;;;5054470;28;20435;-91
2021/07/10 02:10:41;;;;;;;31.53;29.03;;;;;;;;;;5054384;28;20445;-91
2021/07/10 02:13:10;;;;;;;32.63;30.13;;;;;;;;;;5054593;28;20421;-91
2021/07/10 02:15:37;;;;;;;33.73;31.00;;;;;;;;;;5036210;28;20420;-91
2021/07/10 02:18:06;;;;;;;32.93;30.30;;;;;;;;;;5054073;28;20491;-91
2021/07/10 02:20:33;;;;;;;33.30;30.30;;;;;;;;;;5036749;28;20443;-91
2021/07/10 02:23:01;;;;;;;34.87;31.80;;;;;;;;;;5054823;28;20417;-91
2021/07/10 02:25:29;;;;;;;34.83;31.93;;;;;;;;;;5054038;28;20443;-91
2021/07/10 02:27:59;;;;;;;33.80;31.10;;;;;;;;;;5054490;28;20397;-91
2021/07/10 02:30:27;;;;;;;32.90;30.50;;;;;;;;;;5054337;28;20474;-91
2021/07/10 02:32:55;;;;;;;31.23;28.73;;;;;;;;;;5054479;28;20455;-91
2021/07/10 02:35:22;;;;;;;31.60;29.40;;;;;;;;;;5054393;28;20413;-90
2021/07/10 02:37:50;;;;;;;36.50;33.50;;;;;;;;;;5053858;28;20461;-91
2021/07/10 02:40:18;;;;;;;37.17;33.77;;;;;;;;;;5054361;28;20484;-91
2021/07/10 02:42:46;;;;;;;35.13;31.83;;;;;;;;;;5036723;28;20527;-91
2021/07/10 02:45:16;;;;;;;36.60;33.53;;;;;;;;;;5036629;28;20937;-91
2021/07/10 02:47:43;;;;;;;36.03;33.13;;;;;;;;;;5054329;28;20435;-91
2021/07/10 02:50:12;;;;;;;33.57;30.43;;;;;;;;;;5053928;28;20449;-91
2021/07/10 02:52:39;;;;;;;32.20;29.63;;;;;;;;;;5054290;28;20414;-91
2021/07/10 02:55:07;;;;;;;35.17;32.30;;;;;;;;;;5054307;28;20409;-91
2021/07/10 02:57:35;;;;;;;34.23;31.33;;;;;;;;;;5054098;28;20520;-90
2021/07/10 03:00:02;;;;;;;34.37;31.63;;;;;;;;;;5054401;28;20912;-91
2021/07/10 03:02:31;;;;;;;33.70;30.70;;;;;;;;;;5054045;28;20454;-91
2021/07/10 03:04:58;;;;;;;34.10;31.40;;;;;;;;;;5054047;28;20414;-91
2021/07/10 03:07:26;;;;;;;31.53;28.90;;;;;;;;;;5054856;28;20415;-91
2021/07/10 03:09:53;;;;;;;31.87;29.50;;;;;;;;;;5053770;28;20410;-91
2021/07/10 03:12:21;;;;;;;30.70;28.30;;;;;;;;;;5054528;28;20801;-91
2021/07/10 03:14:48;;;;;;;33.77;31.30;;;;;;;;;;5036282;28;20414;-91
2021/07/10 03:17:16;;;;;;;32.20;29.80;;;;;;;;;;5053811;28;20464;-91
2021/07/10 03:19:45;;;;;;;32.83;30.43;;;;;;;;;;5036152;28;20434;-91
2021/07/10 03:22:12;;;;;;;33.30;30.70;;;;;;;;;;5053949;28;20418;-91
2021/07/10 03:24:40;;;;;;;33.23;30.73;;;;;;;;;;5053613;28;20398;-91
2021/07/10 03:27:08;;;;;;;35.43;31.93;;;;;;;;;;5054599;28;20772;-91
2021/07/10 03:29:35;;;;;;;67.77;38.40;;;;;;;;;;5057249;28;20446;-91
2021/07/10 03:32:03;;;;;;;45.93;35.17;;;;;;;;;;5057365;28;20895;-91
2021/07/10 03:34:31;;;;;;;40.73;36.33;;;;;;;;;;5057198;28;20417;-91
2021/07/10 03:37:00;;;;;;;58.00;36.03;;;;;;;;;;5040207;28;20478;-91
2021/07/10 03:39:27;;;;;;;52.57;37.37;;;;;;;;;;5057225;28;20468;-91
2021/07/10 03:41:54;;;;;;;73.67;38.93;;;;;;;;;;5057490;28;20446;-91
2021/07/10 03:44:23;;;;;;;58.30;37.57;;;;;;;;;;5057588;28;20437;-91
2021/07/10 03:46:50;;;;;;;73.10;39.37;;;;;;;;;;5057834;28;20455;-92
2021/07/10 03:49:18;;;;;;;94.50;44.50;;;;;;;;;;5057015;28;20424;-91
2021/07/10 03:51:45;;;;;;;129.80;47.97;;;;;;;;;;5057082;28;20456;-91
2021/07/10 03:54:14;;;;;;;81.40;43.13;;;;;;;;;;5039501;28;20435;-91
2021/07/10 03:56:41;;;;;;;64.30;39.47;;;;;;;;;;5057045;28;20419;-91
2021/07/10 03:59:09;;;;;;;110.60;43.67;;;;;;;;;;5057036;28;20406;-91
2021/07/10 04:01:36;;;;;;;112.47;43.20;;;;;;;;;;5057317;28;20425;-91
2021/07/10 04:04:04;;;;;;;180.40;49.57;;;;;;;;;;5056390;28;20409;-81
2021/07/10 04:06:31;;;;;;;161.27;52.50;;;;;;;;;;5056421;28;20421;-82
2021/07/10 04:08:58;;;;;;;177.30;50.97;;;;;;;;;;5056073;28;20891;-92
2021/07/10 04:11:27;;;;;;;165.63;53.87;;;;;;;;;;5039286;28;20418;-92
2021/07/10 04:13:55;;;;;;;153.40;56.40;;;;;;;;;;5057377;28;20432;-92
2021/07/10 04:16:22;;;;;;;173.43;55.63;;;;;;;;;;5038933;28;20474;-81
2021/07/10 04:18:49;;;;;;;191.23;62.87;;;;;;;;;;5056121;28;20454;-81
2021/07/10 04:21:17;;;;;;;124.10;60.40;;;;;;;;;;5055803;28;20429;-81
2021/07/10 04:23:44;;;;;;;120.10;56.47;;;;;;;;;;5056854;28;20784;-91
2021/07/10 04:26:11;;;;;;;119.87;59.20;;;;;;;;;;5056746;28;20780;-92
2021/07/10 04:28:40;;;;;;;166.17;63.03;;;;;;;;;;5056056;28;20428;-81
2021/07/10 04:31:07;;;;;;;104.60;54.57;;;;;;;;;;5055946;28;20434;-81
2021/07/10 04:33:35;;;;;;;126.47;55.17;;;;;;;;;;5055868;28;20449;-81
2021/07/10 04:36:02;;;;;;;122.37;56.67;;;;;;;;;;5055485;28;20800;-81
2021/07/10 04:38:29;;;;;;;87.73;56.17;;;;;;;;;;5054989;28;20482;-81
2021/07/10 04:40:57;;;;;;;73.17;52.27;;;;;;;;;;5055362;28;20456;-81
2021/07/10 04:43:24;;;;;;;70.63;52.33;;;;;;;;;;5055576;28;20816;-81
2021/07/10 04:45:53;;;;;;;91.73;52.60;;;;;;;;;;5055283;28;20418;-81
2021/07/10 04:48:20;;;;;;;89.30;54.10;;;;;;;;;;5055342;28;20409;-80
2021/07/10 04:50:47;;;;;;;106.23;55.17;;;;;;;;;;5055366;28;20404;-81
2021/07/10 04:53:15;;;;;;;79.40;53.30;;;;;;;;;;5055145;28;20446;-81
2021/07/10 04:55:42;;;;;;;87.77;51.47;;;;;;;;;;5055166;28;20441;-81
2021/07/10 04:58:10;;;;;;;87.40;48.37;;;;;;;;;;5055348;28;20519;-81
2021/07/10 05:00:38;;;;;;;63.23;49.90;;;;;;;;;;5055359;28;20436;-81
2021/07/10 05:03:07;;;;;;;87.87;55.17;;;;;;;;;;5054919;28;20920;-81
2021/07/10 05:05:34;;;;;;;91.97;53.03;;;;;;;;;;5054570;28;20452;-80
2021/07/10 05:08:02;;;;;;;87.77;51.37;;;;;;;;;;5054989;28;20446;-80
2021/07/10 05:10:29;;;;;;;75.87;52.00;;;;;;;;;;5054833;28;21012;-80
2021/07/10 05:12:57;;;;;;;70.43;53.37;;;;;;;;;;5055216;28;20484;-80
2021/07/10 05:15:24;;;;;;;82.57;53.77;;;;;;;;;;5055044;28;20427;-78
2021/07/10 05:17:52;;;;;;;76.50;51.80;;;;;;;;;;5054965;28;20461;-80
2021/07/10 05:20:21;;;;;;;79.30;52.27;;;;;;;;;;5054579;28;20505;-82
2021/07/10 05:22:48;;;;;;;61.80;53.13;;;;;;;;;;5055064;28;20482;-80
2021/07/10 05:25:16;;;;;;;59.23;52.73;;;;;;;;;;5054632;28;20415;-81
2021/07/10 05:27:43;;;;;;;58.50;52.10;;;;;;;;;;5054835;28;20780;-81
2021/07/10 05:30:12;;;;;;;56.43;49.60;;;;;;;;;;5054794;28;20452;-81
2021/07/10 05:32:39;;;;;;;58.13;48.90;;;;;;;;;;5054475;28;20414;-81
2021/07/10 05:35:08;;;;;;;53.50;48.40;;;;;;;;;;5037177;28;20419;-81
2021/07/10 05:37:37;;;;;;;52.83;47.83;;;;;;;;;;5054569;28;20457;-81
2021/07/10 05:40:05;;;;;;;58.37;50.53;;;;;;;;;;5054463;28;20479;-81
2021/07/10 05:42:32;;;;;;;61.90;52.60;;;;;;;;;;5054933;28;20408;-81
2021/07/10 05:45:00;;;;;;;54.27;49.13;;;;;;;;;;5054467;28;20427;-81
2021/07/10 05:47:27;;;;;;;60.80;49.60;;;;;;;;;;5054746;28;20422;-81
2021/07/10 05:49:54;;;;;;;65.30;53.20;;;;;;;;;;5053725;28;20409;-81
2021/07/10 05:52:22;;;;;;;59.97;53.23;;;;;;;;;;5053823;28;20421;-80
2021/07/10 05:54:51;;;;;;;61.47;55.03;;;;;;;;;;5054393;28;20448;-81
2021/07/10 05:57:18;;;;;;;56.20;50.30;;;;;;;;;;5054130;28;20411;-83
2021/07/10 05:59:46;;;;;;;60.17;54.40;;;;;;;;;;5054217;28;20462;-81
2021/07/10 06:02:13;;;;;;;60.90;54.70;;;;;;;;;;5053899;28;20435;-81
2021/07/10 06:04:40;;;;;;;60.13;53.90;;;;;;;;;;5054428;28;20455;-81
2021/07/10 06:07:08;;;;;;;63.00;56.40;;;;;;;;;;5053803;28;20418;-80
2021/07/10 06:09:35;;;;;;;59.47;53.23;;;;;;;;;;5054059;28;20461;-80
2021/07/10 06:12:05;;;;;;;62.20;56.10;;;;;;;;;;5054035;28;20418;-80
2021/07/10 06:14:33;;;;;;;64.00;57.50;;;;;;;;;;5053753;28;20425;-81
2021/07/10 06:17:00;;;;;;;61.83;55.93;;;;;;;;;;5036170;28;20926;-80
2021/07/10 06:19:27;;;;;;;61.67;55.67;;;;;;;;;;5053482;28;20457;-80
2021/07/10 06:21:55;;;;;;;59.00;53.50;;;;;;;;;;5053894;28;20414;-80
2021/07/10 06:24:23;;;;;;;60.87;54.83;;;;;;;;;;5054126;28;20513;-80
2021/07/10 06:26:50;;;;;;;57.37;51.93;;;;;;;;;;5053610;28;20457;-81
2021/07/10 06:29:19;;;;;;;61.10;54.90;;;;;;;;;;5035772;28;20959;-80
2021/07/10 06:31:46;;;;;;;56.97;51.50;;;;;;;;;;5053469;28;20422;-81
2021/07/10 06:34:14;;;;;;;57.37;51.90;;;;;;;;;;5053596;28;20438;-88
2021/07/10 06:36:41;;;;;;;54.40;49.40;;;;;;;;;;5054101;28;20823;-85
2021/07/10 06:39:09;;;;;;;53.13;48.37;;;;;;;;;;5053686;28;20469;-84
2021/07/10 06:41:38;;;;;;;54.90;49.37;;;;;;;;;;5053925;28;20410;-80
2021/07/10 06:44:06;;;;;;;55.53;50.40;;;;;;;;;;5053713;28;20830;-82
2021/07/10 06:46:34;;;;;;;56.37;51.27;;;;;;;;;;5053647;28;20433;-82
2021/07/10 06:49:02;;;;;;;52.00;47.30;;;;;;;;;;5053210;28;20838;-81
2021/07/10 06:51:29;;;;;;;53.70;49.07;;;;;;;;;;5053395;28;20446;-81
2021/07/10 06:53:57;;;;;;;52.83;48.03;;;;;;;;;;5053507;28;20415;-83
2021/07/10 06:56:24;;;;;;;52.80;47.80;;;;;;;;;;5053172;28;20418;-88
2021/07/10 06:58:51;;;;;;;56.10;51.10;;;;;;;;;;5055207;28;20455;-87
2021/07/10 07:01:19;;;;;;;54.17;49.17;;;;;;;;;;5037782;28;20440;-91
2021/07/10 07:03:48;;;;;;;53.07;48.17;;;;;;;;;;5057613;28;20411;-89
2021/07/10 07:06:15;;;;;;;53.77;49.10;;;;;;;;;;5040372;28;20426;-88
2021/07/10 07:08:43;;;;;;;55.40;50.60;;;;;;;;;;5058634;28;20438;-90
2021/07/10 07:11:10;;;;;;;55.17;50.27;;;;;;;;;;5058116;28;20435;-89
2021/07/10 07:13:38;;;;;;;55.10;50.30;;;;;;;;;;5058052;28;20430;-86
2021/07/10 07:16:06;;;;;;;55.00;50.10;;;;;;;;;;5057384;28;20526;-81
2021/07/10 07:18:33;;;;;;;56.87;51.60;;;;;;;;;;5056969;28;20464;-82
2021/07/10 07:21:02;;;;;;;57.30;52.20;;;;;;;;;;5057153;28;20456;-80
2021/07/10 07:23:29;;;;;;;54.40;49.33;;;;;;;;;;5056903;28;20413;-79
2021/07/10 07:25:57;;;;;;;56.90;51.60;;;;;;;;;;5057182;28;20412;-89
2021/07/10 07:28:24;;;;;;;55.70;50.40;;;;;;;;;;5057819;28;20463;-88
2021/07/10 07:30:51;;;;;;;54.40;49.50;;;;;;;;;;5057163;28;20471;-86
2021/07/10 07:33:19;;;;;;;56.90;51.27;;;;;;;;;;5056685;28;20459;-90
2021/07/10 07:35:46;;;;;;;55.87;50.63;;;;;;;;;;5058311;28;20459;-89
2021/07/10 07:38:15;;;;;;;53.50;48.70;;;;;;;;;;5058790;28;20497;-86
2021/07/10 07:40:43;;;;;;;52.80;47.73;;;;;;;;;;5059534;28;20491;-87
2021/07/10 07:43:10;;;;;;;52.37;47.57;;;;;;;;;;5060295;28;20406;-84
2021/07/10 07:45:38;;;;;;;54.47;49.30;;;;;;;;;;5042061;28;20444;-89
2021/07/10 07:48:06;;;;;;;54.67;49.37;;;;;;;;;;5059225;28;20399;-89
2021/07/10 07:50:33;;;;;;;53.60;48.57;;;;;;;;;;5040605;28;20915;-89
2021/07/10 07:53:01;;;;;;;56.30;50.90;;;;;;;;;;5057419;28;20452;-90
2021/07/10 07:55:31;;;;;;;52.47;47.87;;;;;;;;;;5057462;28;20435;-91
2021/07/10 07:57:58;;;;;;;51.53;46.87;;;;;;;;;;5039925;28;20449;-83
2021/07/10 08:00:26;;;;;;;50.20;45.90;;;;;;;;;;5057692;28;20441;-95
2021/07/10 08:02:53;;;;;;;54.80;49.63;;;;;;;;;;5058811;28;20420;-94
2021/07/10 08:05:20;;;;;;;52.63;47.73;;;;;;;;;;5039150;28;20418;-81
2021/07/10 08:07:48;;;;;;;56.03;50.60;;;;;;;;;;5056512;28;20431;-85
2021/07/10 08:10:16;;;;;;;54.27;49.40;;;;;;;;;;5038622;28;20506;-89
2021/07/10 08:12:48;;;;;;;50.00;45.77;;;;;;;;;;5057748;28;20443;-92
2021/07/10 08:15:16;;;;;;;49.57;45.27;;;;;;;;;;5055870;28;20418;-93
2021/07/10 08:17:43;;;;;;;50.23;45.90;;;;;;;;;;5058965;28;20451;-90
2021/07/10 08:20:11;;;;;;;52.13;47.13;;;;;;;;;;5059532;28;20775;-94
2021/07/10 08:22:38;;;;;;;49.50;45.33;;;;;;;;;;5057797;28;20428;-89
2021/07/10 08:25:07;;;;;;;48.67;44.40;;;;;;;;;;5058251;28;20411;-92
2021/07/10 08:27:34;;;;;;;47.70;43.57;;;;;;;;;;5057301;28;20439;-82
2021/07/10 08:30:04;;;;;;;48.80;44.60;;;;;;;;;;5056354;28;20473;-88
2021/07/10 08:32:31;;;;;;;45.80;41.60;;;;;;;;;;5058869;28;20435;-91
2021/07/10 08:34:59;;;;;;;47.33;43.33;;;;;;;;;;5058608;28;20460;-88
2021/07/10 08:37:26;;;;;;;46.70;42.60;;;;;;;;;;5056826;28;20421;-88
2021/07/10 08:39:53;;;;;;;48.23;44.03;;;;;;;;;;5055998;28;20503;-82
2021/07/10 08:42:21;;;;;;;45.83;42.03;;;;;;;;;;5055489;28;20452;-82
2021/07/10 08:44:52;;;;;;;42.43;38.70;;;;;;;;;;5055698;28;20476;-90
2021/07/10 08:47:21;;;;;;;38.03;34.87;;;;;;;;;;5056277;28;20439;-91
2021/07/10 08:49:49;;;;;;;38.03;34.97;;;;;;;;;;5058235;28;20415;-90
2021/07/10 08:52:17;;;;;;;42.07;38.37;;;;;;;;;;5058403;28;20407;-88
2021/07/10 08:54:45;;;;;;;41.10;37.60;;;;;;;;;;5055844;28;20889;-87
2021/07/10 08:57:13;;;;;;;40.93;37.40;;;;;;;;;;5055079;28;20403;-82
2021/07/10 08:59:41;;;;;;;36.27;33.33;;;;;;;;;;5055194;28;21041;-81
2021/07/10 09:02:10;;;;;;;38.60;35.50;;;;;;;;;;5055930;28;20461;-86
2021/07/10 09:04:39;;;;;;;36.87;34.17;;;;;;;;;;5056410;28;20515;-85
2021/07/10 09:07:07;;;;;;;39.90;36.60;;;;;;;;;;5055206;28;20436;-81
2021/07/10 09:09:44;;;;;;;40.00;36.60;;;;;;;;;;5057047;28;20415;-88
2021/07/10 09:12:13;;;;;;;38.03;34.93;;;;;;;;;;5056408;28;20435;-86
2021/07/10 09:14:40;;;;;;;40.90;37.50;;;;;;;;;;5055488;28;20416;-87
2021/07/10 09:17:18;;;;;;;40.93;37.47;;;;;;;;;;5056150;28;20449;-84
2021/07/10 09:19:47;;;;;;;41.93;38.63;;;;;;;;;;5054493;28;20466;-82
2021/07/10 09:22:24;;;;;;;41.67;38.20;;;;;;;;;;5055475;28;20804;-81
2021/07/10 09:24:52;;;;;;;41.80;38.53;;;;;;;;;;5054424;28;20444;-81
2021/07/10 09:27:19;;;;;;;40.93;37.77;;;;;;;;;;5037816;28;20463;-86
2021/07/10 09:29:48;;;;;;;43.13;39.50;;;;;;;;;;5055250;28;20479;-88
2021/07/10 09:32:19;;;;;;;39.33;36.53;;;;;;;;;;5037535;28;20463;-90
2021/07/10 09:34:49;;;;;;;40.47;37.13;;;;;;;;;;5038641;28;20436;-90
2021/07/10 09:37:18;;;;;;;39.17;36.30;;;;;;;;;;5036680;28;20936;-82
2021/07/10 09:39:46;;;;;;;40.77;37.77;;;;;;;;;;5054853;28;20505;-87
2021/07/10 09:42:15;;;;;;;39.77;36.87;;;;;;;;;;5054925;28;20457;-81
2021/07/10 09:44:44;;;;;;;40.47;37.20;;;;;;;;;;5054562;28;20485;-80
2021/07/10 09:47:13;;;;;;;39.47;36.40;;;;;;;;;;5054178;28;20452;-80
2021/07/10 09:49:41;;;;;;;40.33;37.13;;;;;;;;;;5054126;28;20436;-80
2021/07/10 09:52:13;;;;;;;38.57;35.77;;;;;;;;;;5054209;28;20859;-80
2021/07/10 09:54:43;;;;;;;39.87;36.87;;;;;;;;;;5054139;28;20546;-80
2021/07/10 09:57:12;;;;;;;40.30;37.23;;;;;;;;;;5054163;28;20470;-80
2021/07/10 09:59:45;;;;;;;37.03;34.33;;;;;;;;;;5053727;28;20516;-80
2021/07/10 10:02:15;;;;;;;38.20;35.20;;;;;;;;;;5054036;28;20419;-80
2021/07/10 10:04:43;;;;;;;38.33;35.37;;;;;;;;;;5053872;28;20452;-81
2021/07/10 10:07:14;;;;;;;39.77;36.83;;;;;;;;;;5053856;28;20449;-80
2021/07/10 10:09:42;;;;;;;37.53;34.50;;;;;;;;;;5053753;28;20500;-80
2021/07/10 10:12:12;;;;;;;41.87;38.50;;;;;;;;;;5053688;28;20407;-79
2021/07/10 10:14:44;;;;;;;39.03;36.03;;;;;;;;;;5053940;28;20523;-80
2021/07/10 10:17:12;;;;;;;39.73;36.90;;;;;;;;;;5053651;28;20766;-82
2021/07/10 10:19:41;;;;;;;39.10;36.10;;;;;;;;;;5035894;28;20464;-82
2021/07/10 10:22:09;;;;;;;38.03;35.23;;;;;;;;;;5053991;28;20449;-82
2021/07/10 10:24:39;;;;;;;40.37;37.27;;;;;;;;;;5053685;28;20946;-82
2021/07/10 10:27:07;;;;;;;37.70;34.70;;;;;;;;;;5053588;28;20405;-82
2021/07/10 10:29:35;;;;;;;38.60;35.80;;;;;;;;;;5053387;28;21046;-82
2021/07/10 10:32:02;;;;;;;39.17;36.17;;;;;;;;;;5053144;28;20449;-81
2021/07/10 10:34:30;;;;;;;39.60;36.60;;;;;;;;;;5053471;28;20444;-82
2021/07/10 10:36:59;;;;;;;39.73;36.70;;;;;;;;;;5052880;28;20449;-82
2021/07/10 10:39:29;;;;;;;37.33;34.57;;;;;;;;;;5053274;28;20998;-82
2021/07/10 10:42:00;;;;;;;36.07;33.57;;;;;;;;;;5053400;28;20881;-82
2021/07/10 10:44:28;;;;;;;36.03;33.47;;;;;;;;;;5053345;28;20489;-82
2021/07/10 10:46:57;;;;;;;36.93;33.73;;;;;;;;;;5053315;28;20942;-82
2021/07/10 10:49:43;;;;;;;34.13;31.53;;;;;;;;;;5053471;28;20430;-82
2021/07/10 10:52:18;;;;;;;34.07;31.57;;;;;;;;;;5053592;28;20962;-81
2021/07/10 10:54:46;;;;;;;33.77;31.30;;;;;;;;;;5053437;28;20578;-79
2021/07/10 10:57:15;;;;;;;31.83;29.73;;;;;;;;;;5053536;28;20771;-90
2021/07/10 10:59:43;;;;;;;33.73;31.23;;;;;;;;;;5056022;28;20464;-89
2021/07/10 11:02:25;;;;;;;31.40;28.97;;;;;;;;;;5054742;28;20446;-89
2021/07/10 11:04:59;;;;;;;30.60;28.50;;;;;;;;;;5054240;28;20441;-81
2021/07/10 11:07:27;;;;;;;31.20;28.90;;;;;;;;;;5054119;28;20814;-79
2021/07/10 11:10:15;;;;;;;34.10;31.40;;;;;;;;;;5053645;28;20417;-79
2021/07/10 11:12:59;;;;;;;32.27;29.87;;;;;;;;;;5048598;28;20429;-79
2021/07/10 11:15:53;;;;;;;33.03;30.73;;;;;;;;;;5053108;28;20921;-83
2021/07/10 11:18:30;;;;;;;31.87;29.70;;;;;;;;;;5011916;28;20452;-83
2021/07/10 11:20:58;;;;;;;32.67;30.37;;;;;;;;;;5011519;28;20462;-84
2021/07/10 11:23:27;;;;;;;32.47;30.03;;;;;;;;;;5011447;28;20455;-83
2021/07/10 11:25:56;;;;;;;32.30;29.90;;;;;;;;;;5011414;28;20446;-83
2021/07/10 11:28:26;;;;;;;30.90;28.93;;;;;;;;;;4995196;28;20485;-83
2021/07/10 11:30:55;;;;;;;33.23;30.93;;;;;;;;;;5011584;28;20472;-91
2021/07/10 11:33:40;;;;;;;31.77;29.57;;;;;;;;;;5012215;28;20434;-84
2021/07/10 11:36:38;;;;;;;32.60;30.27;;;;;;;;;;5011578;28;20418;-84
2021/07/10 11:39:06;;;;;;;31.93;29.73;;;;;;;;;;4999896;28;20557;-83
2021/07/10 11:41:35;;;;;;;33.37;30.97;;;;;;;;;;4991590;28;20971;-83
2021/07/10 11:44:13;;;;;;;31.40;29.20;;;;;;;;;;4991762;28;20431;-83
2021/07/10 11:47:02;;;;;;;30.20;28.27;;;;;;;;;;4992080;28;20423;-88
2021/07/10 11:49:42;;;;;;;28.83;26.83;;;;;;;;;;4996119;28;20574;-81
2021/07/10 11:52:10;;;;;;;29.27;27.37;;;;;;;;;;4995169;28;20965;-82
2021/07/10 11:54:39;;;;;;;29.67;27.70;;;;;;;;;;5039607;28;20421;-82
2021/07/10 11:57:07;;;;;;;28.57;26.70;;;;;;;;;;5056084;28;20898;-82
2021/07/10 11:59:37;;;;;;;29.33;27.43;;;;;;;;;;5056260;28;20483;-82
2021/07/10 12:02:15;;;;;;;29.70;27.80;;;;;;;;;;5038563;28;20987;-82
2021/07/10 12:04:59;;;;;;;28.47;26.57;;;;;;;;;;5056535;28;20440;-81
2021/07/10 12:07:26;;;;;;;29.20;27.30;;;;;;;;;;5056406;28;20467;-81
2021/07/10 12:09:54;;;;;;;28.20;26.40;;;;;;;;;;5056635;28;20431;-82
2021/07/10 12:12:22;;;;;;;29.83;27.80;;;;;;;;;;5055990;28;20412;-81
2021/07/10 12:14:55;;;;;;;28.67;26.47;;;;;;;;;;5055961;28;20434;-82
2021/07/10 12:17:23;;;;;;;29.60;27.60;;;;;;;;;;5055867;28;20952;-81
2021/07/10 12:19:51;;;;;;;26.80;25.00;;;;;;;;;;5055865;28;20475;-82
2021/07/10 12:22:22;;;;;;;28.00;26.10;;;;;;;;;;5056030;28;20435;-81
2021/07/10 12:24:50;;;;;;;29.43;27.43;;;;;;;;;;5055951;28;20470;-81
2021/07/10 12:27:18;;;;;;;30.17;27.97;;;;;;;;;;5055745;28;20510;-82
2021/07/10 12:30:00;;;;;;;31.57;29.17;;;;;;;;;;5055830;28;20466;-82
2021/07/10 12:32:29;;;;;;;30.03;28.00;;;;;;;;;;5054304;28;20442;-82
2021/07/10 12:34:57;;;;;;;29.17;27.37;;;;;;;;;;5055538;28;20787;-82
2021/07/10 12:37:25;;;;;;;29.77;27.73;;;;;;;;;;5055827;28;20516;-82
2021/07/10 12:39:53;;;;;;;29.03;27.13;;;;;;;;;;5055325;28;20505;-81
2021/07/10 12:42:20;;;;;;;29.77;27.57;;;;;;;;;;5055594;28;20457;-81
2021/07/10 12:44:48;;;;;;;29.53;27.50;;;;;;;;;;5055313;28;20428;-81
2021/07/10 12:47:17;;;;;;;29.13;27.23;;;;;;;;;;5055348;28;20454;-80
2021/07/10 12:49:47;;;;;;;28.80;27.00;;;;;;;;;;5055116;28;20454;-80
2021/07/10 12:52:22;;;;;;;29.20;27.30;;;;;;;;;;5055586;28;20430;-81
2021/07/10 12:54:52;;;;;;;29.40;27.50;;;;;;;;;;5054922;28;20786;-80
2021/07/10 12:57:21;;;;;;;29.60;27.40;;;;;;;;;;5055280;28;20464;-80
2021/07/10 12:59:50;;;;;;;29.20;27.00;;;;;;;;;;5054433;28;20449;-80
2021/07/10 13:02:24;;;;;;;30.30;28.10;;;;;;;;;;5055439;28;20446;-80
2021/07/10 13:04:53;;;;;;;28.23;26.43;;;;;;;;;;5054973;28;20808;-81
2021/07/10 13:07:24;;;;;;;28.37;26.50;;;;;;;;;;5055319;28;20431;-79
2021/07/10 13:09:52;;;;;;;28.43;26.53;;;;;;;;;;5055268;28;20432;-81
2021/07/10 13:12:40;;;;;;;27.83;26.17;;;;;;;;;;5054778;28;20413;-81
2021/07/10 13:15:08;;;;;;;30.00;28.00;;;;;;;;;;5055321;28;20435;-81
2021/07/10 13:17:35;;;;;;;29.17;27.10;;;;;;;;;;5054931;28;20427;-81
2021/07/10 13:20:23;;;;;;;28.83;26.93;;;;;;;;;;5054734;28;20959;-81
2021/07/10 13:22:51;;;;;;;29.13;27.30;;;;;;;;;;5054595;28;20405;-81
2021/07/10 13:25:18;;;;;;;29.70;27.90;;;;;;;;;;5054436;28;20430;-81
2021/07/10 13:27:45;;;;;;;29.40;27.40;;;;;;;;;;5054866;28;20432;-81
2021/07/10 13:30:14;;;;;;;29.47;27.50;;;;;;;;;;5036939;28;20852;-81
2021/07/10 13:32:41;;;;;;;28.27;26.50;;;;;;;;;;5054701;28;20439;-81
2021/07/10 13:35:11;;;;;;;28.70;26.90;;;;;;;;;;5054584;28;20409;-81
2021/07/10 13:37:38;;;;;;;29.30;27.40;;;;;;;;;;5054285;28;20916;-81
2021/07/10 13:40:16;;;;;;;29.40;27.40;;;;;;;;;;5054186;28;20473;-81
2021/07/10 13:42:54;;;;;;;29.30;27.30;;;;;;;;;;5054537;28;20469;-81
2021/07/10 13:45:22;;;;;;;29.80;27.70;;;;;;;;;;5054245;28;20440;-81
2021/07/10 13:47:49;;;;;;;30.53;28.27;;;;;;;;;;5054098;28;20450;-82
2021/07/10 13:50:18;;;;;;;28.33;26.50;;;;;;;;;;5054531;28;20413;-79
2021/07/10 13:52:45;;;;;;;28.57;26.53;;;;;;;;;;5054150;28;20449;-82
2021/07/10 13:55:15;;;;;;;26.60;24.90;;;;;;;;;;5054303;28;20438;-79
2021/07/10 13:57:42;;;;;;;26.97;25.23;;;;;;;;;;5054227;28;20504;-79
2021/07/10 14:00:16;;;;;;;28.17;26.37;;;;;;;;;;5053904;28;20468;-79
2021/07/10 14:02:45;;;;;;;29.03;27.10;;;;;;;;;;5054285;28;20447;-79
2021/07/10 14:05:16;;;;;;;29.07;27.27;;;;;;;;;;5054269;28;20412;-79
2021/07/10 14:07:48;;;;;;;28.67;26.90;;;;;;;;;;5054100;28;20425;-79
2021/07/10 14:10:17;;;;;;;30.10;27.63;;;;;;;;;;5054069;28;20468;-80
2021/07/10 14:12:44;;;;;;;28.53;26.63;;;;;;;;;;5052979;28;20417;-79
2021/07/10 14:15:13;;;;;;;29.33;27.13;;;;;;;;;;5053641;28;20428;-80
2021/07/10 14:17:40;;;;;;;30.27;28.10;;;;;;;;;;5036146;28;20752;-79
2021/07/10 14:20:08;;;;;;;28.37;26.37;;;;;;;;;;5053923;28;20493;-80
2021/07/10 14:22:36;;;;;;;27.47;25.57;;;;;;;;;;5053651;28;20417;-79
2021/07/10 14:25:06;;;;;;;27.43;25.53;;;;;;;;;;5053832;28;20450;-79
2021/07/10 14:27:34;;;;;;;28.00;26.20;;;;;;;;;;5053813;28;20414;-79